sensor_id;sensor_type;location;lat;lon;timestamp;temperature;humidity
26186;DHT22;20067;48.764;9.176;2023-05-07T00:01:08;16.50;87.50
26186;DHT22;20067;48.764;9.176;2023-05-07T00:03:34;16.50;87.20
26186;DHT22;20067;48.764;9.176;2023-05-07T00:05:59;16.40;87.20
26186;DHT22;20067;48.764;9.176;2023-05-07T00:08:25;16.50;87.10
26186;DHT22;20067;48.764;9.176;2023-05-07T00:10:50;16.70;86.80
26186;DHT22;20067;48.764;9.176;2023-05-07T00:13:16;16.70;86.80
26186;DHT22;20067;48.764;9.176;2023-05-07T00:15:42;16.60;86.60
26186;DHT22;20067;48.764;9.176;2023-05-07T00:18:07;16.60;86.80
26186;DHT22;20067;48.764;9.176;2023-05-07T00:20:33;16.70;86.30
26186;DHT22;20067;48.764;9.176;2023-05-07T00:22:58;16.80;86.20
26186;DHT22;20067;48.764;9.176;2023-05-07T00:25:24;16.80;86.20
26186;DHT22;20067;48.764;9.176;2023-05-07T00:27:49;16.50;86.80
26186;DHT22;20067;48.764;9.176;2023-05-07T00:30:15;16.50;87.40
26186;DHT22;20067;48.764;9.176;2023-05-07T00:32:41;16.50;87.10
26186;DHT22;20067;48.764;9.176;2023-05-07T00:35:07;16.50;87.10
26186;DHT22;20067;48.764;9.176;2023-05-07T00:37:33;16.60;86.90
26186;DHT22;20067;48.764;9.176;2023-05-07T00:39:59;16.60;86.70
26186;DHT22;20067;48.764;9.176;2023-05-07T00:42:24;16.50;87.30
26186;DHT22;20067;48.764;9.176;2023-05-07T00:44:50;16.50;87.20
26186;DHT22;20067;48.764;9.176;2023-05-07T00:47:16;16.20;88.10
26186;DHT22;20067;48.764;9.176;2023-05-07T00:49:44;15.90;89.40
26186;DHT22;20067;48.764;9.176;2023-05-07T00:52:13;16.10;88.90
26186;DHT22;20067;48.764;9.176;2023-05-07T00:54:41;16.20;88.30
26186;DHT22;20067;48.764;9.176;2023-05-07T00:57:06;16.10;88.80
26186;DHT22;20067;48.764;9.176;2023-05-07T00:59:33;16.10;88.90
26186;DHT22;20067;48.764;9.176;2023-05-07T01:02:00;16.30;88.40
26186;DHT22;20067;48.764;9.176;2023-05-07T01:04:26;16.40;87.80
26186;DHT22;20067;48.764;9.176;2023-05-07T01:06:52;16.30;87.90
26186;DHT22;20067;48.764;9.176;2023-05-07T01:09:19;16.30;88.10
26186;DHT22;20067;48.764;9.176;2023-05-07T01:11:47;16.30;87.60
26186;DHT22;20067;48.764;9.176;2023-05-07T01:14:13;16.30;87.80
26186;DHT22;20067;48.764;9.176;2023-05-07T01:16:38;16.20;88.00
26186;DHT22;20067;48.764;9.176;2023-05-07T01:19:06;16.10;88.40
26186;DHT22;20067;48.764;9.176;2023-05-07T01:21:33;16.10;88.90
26186;DHT22;20067;48.764;9.176;2023-05-07T01:24:00;16.10;88.80
26186;DHT22;20067;48.764;9.176;2023-05-07T01:26:26;16.30;88.40
26186;DHT22;20067;48.764;9.176;2023-05-07T01:28:51;16.40;87.90
26186;DHT22;20067;48.764;9.176;2023-05-07T01:31:17;16.30;87.80
26186;DHT22;20067;48.764;9.176;2023-05-07T01:33:44;16.20;88.20
26186;DHT22;20067;48.764;9.176;2023-05-07T01:36:12;16.10;88.70
26186;DHT22;20067;48.764;9.176;2023-05-07T01:38:39;16.10;88.90
26186;DHT22;20067;48.764;9.176;2023-05-07T01:41:07;16.20;88.20
26186;DHT22;20067;48.764;9.176;2023-05-07T01:43:33;16.00;88.80
26186;DHT22;20067;48.764;9.176;2023-05-07T01:46:00;15.80;89.50
26186;DHT22;20067;48.764;9.176;2023-05-07T01:48:26;15.80;89.80
26186;DHT22;20067;48.764;9.176;2023-05-07T01:50:53;16.00;89.30
26186;DHT22;20067;48.764;9.176;2023-05-07T01:53:18;16.10;88.90
26186;DHT22;20067;48.764;9.176;2023-05-07T01:55:44;15.90;89.30
26186;DHT22;20067;48.764;9.176;2023-05-07T01:58:10;15.90;89.90
26186;DHT22;20067;48.764;9.176;2023-05-07T02:00:36;15.90;89.60
26186;DHT22;20067;48.764;9.176;2023-05-07T02:03:01;15.90;89.40
26186;DHT22;20067;48.764;9.176;2023-05-07T02:05:27;15.80;89.50
26186;DHT22;20067;48.764;9.176;2023-05-07T02:07:53;15.50;90.80
26186;DHT22;20067;48.764;9.176;2023-05-07T02:10:18;15.50;91.10
26186;DHT22;20067;48.764;9.176;2023-05-07T02:12:44;15.50;90.80
26186;DHT22;20067;48.764;9.176;2023-05-07T02:15:10;15.50;91.10
26186;DHT22;20067;48.764;9.176;2023-05-07T02:17:40;15.60;91.00
26186;DHT22;20067;48.764;9.176;2023-05-07T02:20:23;15.60;90.80
26186;DHT22;20067;48.764;9.176;2023-05-07T02:22:48;15.30;91.30
26186;DHT22;20067;48.764;9.176;2023-05-07T02:25:14;15.10;91.30
26186;DHT22;20067;48.764;9.176;2023-05-07T02:27:40;14.90;91.30
26186;DHT22;20067;48.764;9.176;2023-05-07T02:30:06;15.10;91.30
26186;DHT22;20067;48.764;9.176;2023-05-07T02:32:31;15.30;91.30
26186;DHT22;20067;48.764;9.176;2023-05-07T02:34:57;15.50;91.30
26186;DHT22;20067;48.764;9.176;2023-05-07T02:37:22;15.40;91.30
26186;DHT22;20067;48.764;9.176;2023-05-07T02:39:48;15.40;91.30
26186;DHT22;20067;48.764;9.176;2023-05-07T02:42:14;15.50;91.30
26186;DHT22;20067;48.764;9.176;2023-05-07T02:44:39;15.50;91.00
26186;DHT22;20067;48.764;9.176;2023-05-07T02:47:05;15.60;90.90
26186;DHT22;20067;48.764;9.176;2023-05-07T02:49:33;15.40;91.00
26186;DHT22;20067;48.764;9.176;2023-05-07T02:51:59;15.30;91.30
26186;DHT22;20067;48.764;9.176;2023-05-07T02:54:24;15.40;91.30
26186;DHT22;20067;48.764;9.176;2023-05-07T02:56:50;15.40;91.30
26186;DHT22;20067;48.764;9.176;2023-05-07T02:59:16;15.40;91.30
26186;DHT22;20067;48.764;9.176;2023-05-07T03:01:41;15.50;91.30
26186;DHT22;20067;48.764;9.176;2023-05-07T03:04:09;15.60;91.00
26186;DHT22;20067;48.764;9.176;2023-05-07T03:06:36;15.50;90.90
26186;DHT22;20067;48.764;9.176;2023-05-07T03:09:02;15.40;91.30
26186;DHT22;20067;48.764;9.176;2023-05-07T03:11:27;15.50;91.30
26186;DHT22;20067;48.764;9.176;2023-05-07T03:13:53;15.50;91.30
26186;DHT22;20067;48.764;9.176;2023-05-07T03:16:19;15.20;91.30
26186;DHT22;20067;48.764;9.176;2023-05-07T03:18:45;14.90;91.30
26186;DHT22;20067;48.764;9.176;2023-05-07T03:21:10;15.00;91.30
26186;DHT22;20067;48.764;9.176;2023-05-07T03:23:36;15.00;91.30
26186;DHT22;20067;48.764;9.176;2023-05-07T03:26:01;14.90;91.30
26186;DHT22;20067;48.764;9.176;2023-05-07T03:28:27;14.90;91.30
26186;DHT22;20067;48.764;9.176;2023-05-07T03:30:52;14.70;91.30
26186;DHT22;20067;48.764;9.176;2023-05-07T03:33:18;14.80;91.30
26186;DHT22;20067;48.764;9.176;2023-05-07T03:35:44;14.80;91.30
26186;DHT22;20067;48.764;9.176;2023-05-07T03:38:09;14.80;91.30
26186;DHT22;20067;48.764;9.176;2023-05-07T03:40:35;15.00;91.30
26186;DHT22;20067;48.764;9.176;2023-05-07T03:43:01;15.10;91.30
26186;DHT22;20067;48.764;9.176;2023-05-07T03:45:26;15.10;91.30
26186;DHT22;20067;48.764;9.176;2023-05-07T03:47:52;15.00;91.30
26186;DHT22;20067;48.764;9.176;2023-05-07T03:50:17;14.80;91.30
26186;DHT22;20067;48.764;9.176;2023-05-07T03:52:43;14.70;91.30
26186;DHT22;20067;48.764;9.176;2023-05-07T03:55:09;14.70;91.30
26186;DHT22;20067;48.764;9.176;2023-05-07T03:57:35;14.80;91.30
26186;DHT22;20067;48.764;9.176;2023-05-07T04:00:01;14.80;91.30
26186;DHT22;20067;48.764;9.176;2023-05-07T04:02:27;14.90;91.30
26186;DHT22;20067;48.764;9.176;2023-05-07T04:04:52;14.90;91.30
26186;DHT22;20067;48.764;9.176;2023-05-07T04:07:18;14.80;91.30
26186;DHT22;20067;48.764;9.176;2023-05-07T04:09:44;14.80;91.30
26186;DHT22;20067;48.764;9.176;2023-05-07T04:12:09;14.80;91.30
26186;DHT22;20067;48.764;9.176;2023-05-07T04:14:35;14.80;91.30
26186;DHT22;20067;48.764;9.176;2023-05-07T04:17:00;14.90;91.30
26186;DHT22;20067;48.764;9.176;2023-05-07T04:19:26;15.00;91.30
26186;DHT22;20067;48.764;9.176;2023-05-07T04:21:52;15.00;91.30
26186;DHT22;20067;48.764;9.176;2023-05-07T04:24:17;14.90;91.30
26186;DHT22;20067;48.764;9.176;2023-05-07T04:26:43;14.70;91.30
26186;DHT22;20067;48.764;9.176;2023-05-07T04:29:08;14.90;91.30
26186;DHT22;20067;48.764;9.176;2023-05-07T04:31:34;15.00;91.30
26186;DHT22;20067;48.764;9.176;2023-05-07T04:34:00;15.10;91.30
26186;DHT22;20067;48.764;9.176;2023-05-07T04:36:26;14.60;91.30
26186;DHT22;20067;48.764;9.176;2023-05-07T04:38:53;14.50;91.30
26186;DHT22;20067;48.764;9.176;2023-05-07T04:41:19;14.60;91.30
26186;DHT22;20067;48.764;9.176;2023-05-07T04:43:44;14.70;91.30
26186;DHT22;20067;48.764;9.176;2023-05-07T04:46:10;14.70;91.30
26186;DHT22;20067;48.764;9.176;2023-05-07T04:48:36;14.80;91.30
26186;DHT22;20067;48.764;9.176;2023-05-07T04:51:02;14.90;91.30
26186;DHT22;20067;48.764;9.176;2023-05-07T04:53:27;14.70;91.30
26186;DHT22;20067;48.764;9.176;2023-05-07T04:55:56;14.80;91.30
26186;DHT22;20067;48.764;9.176;2023-05-07T04:58:23;15.00;91.30
26186;DHT22;20067;48.764;9.176;2023-05-07T05:00:49;14.80;91.30
26186;DHT22;20067;48.764;9.176;2023-05-07T05:03:15;14.60;91.30
26186;DHT22;20067;48.764;9.176;2023-05-07T05:05:40;14.50;91.30
26186;DHT22;20067;48.764;9.176;2023-05-07T05:08:06;14.50;91.30
26186;DHT22;20067;48.764;9.176;2023-05-07T05:10:32;14.80;91.30
26186;DHT22;20067;48.764;9.176;2023-05-07T05:12:57;14.90;91.30
26186;DHT22;20067;48.764;9.176;2023-05-07T05:15:23;15.10;91.30
26186;DHT22;20067;48.764;9.176;2023-05-07T05:17:48;15.20;91.30
26186;DHT22;20067;48.764;9.176;2023-05-07T05:20:14;15.30;91.30
26186;DHT22;20067;48.764;9.176;2023-05-07T05:22:41;15.40;91.10
26186;DHT22;20067;48.764;9.176;2023-05-07T05:25:07;15.40;90.80
26186;DHT22;20067;48.764;9.176;2023-05-07T05:27:33;15.50;90.60
26186;DHT22;20067;48.764;9.176;2023-05-07T05:29:59;15.50;90.30
26186;DHT22;20067;48.764;9.176;2023-05-07T05:32:24;15.50;90.50
26186;DHT22;20067;48.764;9.176;2023-05-07T05:34:51;15.60;90.30
26186;DHT22;20067;48.764;9.176;2023-05-07T05:37:16;15.70;90.00
26186;DHT22;20067;48.764;9.176;2023-05-07T05:39:42;15.60;90.50
26186;DHT22;20067;48.764;9.176;2023-05-07T05:42:07;15.40;90.50
26186;DHT22;20067;48.764;9.176;2023-05-07T05:44:33;15.50;90.60
26186;DHT22;20067;48.764;9.176;2023-05-07T05:47:00;15.70;89.90
26186;DHT22;20067;48.764;9.176;2023-05-07T05:49:25;15.70;89.70
26186;DHT22;20067;48.764;9.176;2023-05-07T05:51:51;15.70;89.70
26186;DHT22;20067;48.764;9.176;2023-05-07T05:54:17;15.60;90.40
26186;DHT22;20067;48.764;9.176;2023-05-07T05:56:43;15.30;91.10
26186;DHT22;20067;48.764;9.176;2023-05-07T05:59:08;15.20;91.30
26186;DHT22;20067;48.764;9.176;2023-05-07T06:01:34;15.20;91.30
26186;DHT22;20067;48.764;9.176;2023-05-07T06:04:00;15.60;91.30
26186;DHT22;20067;48.764;9.176;2023-05-07T06:06:25;15.90;90.50
26186;DHT22;20067;48.764;9.176;2023-05-07T06:08:51;16.20;89.30
26186;DHT22;20067;48.764;9.176;2023-05-07T06:11:17;16.30;88.70
26186;DHT22;20067;48.764;9.176;2023-05-07T06:13:42;16.40;88.60
26186;DHT22;20067;48.764;9.176;2023-05-07T06:16:08;16.70;87.50
26186;DHT22;20067;48.764;9.176;2023-05-07T06:18:33;16.70;87.30
26186;DHT22;20067;48.764;9.176;2023-05-07T06:21:01;16.90;86.90
26186;DHT22;20067;48.764;9.176;2023-05-07T06:23:27;17.00;86.80
26186;DHT22;20067;48.764;9.176;2023-05-07T06:25:52;17.10;86.10
26186;DHT22;20067;48.764;9.176;2023-05-07T06:28:18;17.20;85.60
26186;DHT22;20067;48.764;9.176;2023-05-07T06:30:44;17.10;85.70
26186;DHT22;20067;48.764;9.176;2023-05-07T06:33:09;17.00;86.10
26186;DHT22;20067;48.764;9.176;2023-05-07T06:35:35;17.00;85.90
26186;DHT22;20067;48.764;9.176;2023-05-07T06:38:00;16.90;86.70
26186;DHT22;20067;48.764;9.176;2023-05-07T06:40:27;17.00;86.70
26186;DHT22;20067;48.764;9.176;2023-05-07T06:42:52;16.80;85.90
26186;DHT22;20067;48.764;9.176;2023-05-07T06:45:19;16.70;87.00
26186;DHT22;20067;48.764;9.176;2023-05-07T06:47:45;16.60;87.20
26186;DHT22;20067;48.764;9.176;2023-05-07T06:50:10;16.70;87.60
26186;DHT22;20067;48.764;9.176;2023-05-07T06:52:36;16.90;87.00
26186;DHT22;20067;48.764;9.176;2023-05-07T06:55:02;16.70;87.70
26186;DHT22;20067;48.764;9.176;2023-05-07T06:57:27;16.70;87.80
26186;DHT22;20067;48.764;9.176;2023-05-07T06:59:53;16.80;87.60
26186;DHT22;20067;48.764;9.176;2023-05-07T07:02:18;17.10;87.40
26186;DHT22;20067;48.764;9.176;2023-05-07T07:04:44;17.00;87.20
26186;DHT22;20067;48.764;9.176;2023-05-07T07:07:10;17.50;86.60
26186;DHT22;20067;48.764;9.176;2023-05-07T07:09:36;17.60;86.00
26186;DHT22;20067;48.764;9.176;2023-05-07T07:12:01;17.70;86.00
26186;DHT22;20067;48.764;9.176;2023-05-07T07:14:27;17.60;86.40
26186;DHT22;20067;48.764;9.176;2023-05-07T07:16:52;17.70;87.00
26186;DHT22;20067;48.764;9.176;2023-05-07T07:19:18;17.80;85.80
26186;DHT22;20067;48.764;9.176;2023-05-07T07:21:45;17.70;85.90
26186;DHT22;20067;48.764;9.176;2023-05-07T07:24:11;17.70;86.50
26186;DHT22;20067;48.764;9.176;2023-05-07T07:26:36;18.90;82.80
26186;DHT22;20067;48.764;9.176;2023-05-07T07:29:02;21.20;77.60
26186;DHT22;20067;48.764;9.176;2023-05-07T07:31:28;22.20;73.80
26186;DHT22;20067;48.764;9.176;2023-05-07T07:33:53;24.20;69.00
26186;DHT22;20067;48.764;9.176;2023-05-07T07:36:19;24.40;67.60
26186;DHT22;20067;48.764;9.176;2023-05-07T07:38:44;26.40;63.80
26186;DHT22;20067;48.764;9.176;2023-05-07T07:41:10;25.80;64.30
26186;DHT22;20067;48.764;9.176;2023-05-07T07:43:36;26.40;63.20
26186;DHT22;20067;48.764;9.176;2023-05-07T07:46:01;27.40;60.60
26186;DHT22;20067;48.764;9.176;2023-05-07T07:48:27;27.90;60.70
26186;DHT22;20067;48.764;9.176;2023-05-07T07:50:53;28.60;58.90
26186;DHT22;20067;48.764;9.176;2023-05-07T07:53:19;30.00;56.80
26186;DHT22;20067;48.764;9.176;2023-05-07T07:55:45;29.60;56.50
26186;DHT22;20067;48.764;9.176;2023-05-07T07:58:11;29.20;57.10
26186;DHT22;20067;48.764;9.176;2023-05-07T08:00:36;29.00;57.20
26186;DHT22;20067;48.764;9.176;2023-05-07T08:03:02;29.40;56.60
26186;DHT22;20067;48.764;9.176;2023-05-07T08:05:28;28.50;57.90
26186;DHT22;20067;48.764;9.176;2023-05-07T08:07:54;29.10;57.50
26186;DHT22;20067;48.764;9.176;2023-05-07T08:10:20;28.80;56.50
26186;DHT22;20067;48.764;9.176;2023-05-07T08:12:48;28.30;57.20
26186;DHT22;20067;48.764;9.176;2023-05-07T08:15:14;26.30;62.10
26186;DHT22;20067;48.764;9.176;2023-05-07T08:17:40;26.00;62.10
26186;DHT22;20067;48.764;9.176;2023-05-07T08:20:06;25.20;63.60
26186;DHT22;20067;48.764;9.176;2023-05-07T08:22:33;24.30;65.60
26186;DHT22;20067;48.764;9.176;2023-05-07T08:24:59;23.90;67.20
26186;DHT22;20067;48.764;9.176;2023-05-07T08:27:25;24.60;65.80
26186;DHT22;20067;48.764;9.176;2023-05-07T08:29:51;25.90;63.40
26186;DHT22;20067;48.764;9.176;2023-05-07T08:32:17;25.40;63.00
26186;DHT22;20067;48.764;9.176;2023-05-07T08:34:42;24.80;65.00
26186;DHT22;20067;48.764;9.176;2023-05-07T08:37:08;24.60;65.00
26186;DHT22;20067;48.764;9.176;2023-05-07T08:39:33;24.00;67.20
26186;DHT22;20067;48.764;9.176;2023-05-07T08:42:00;23.80;67.50
26186;DHT22;20067;48.764;9.176;2023-05-07T08:44:33;23.70;67.80
26186;DHT22;20067;48.764;9.176;2023-05-07T08:47:00;23.60;68.80
26186;DHT22;20067;48.764;9.176;2023-05-07T08:49:27;24.10;66.90
26186;DHT22;20067;48.764;9.176;2023-05-07T08:51:53;24.00;67.20
26186;DHT22;20067;48.764;9.176;2023-05-07T08:54:20;24.40;67.00
26186;DHT22;20067;48.764;9.176;2023-05-07T08:56:46;25.30;64.40
26186;DHT22;20067;48.764;9.176;2023-05-07T08:59:12;26.40;62.50
26186;DHT22;20067;48.764;9.176;2023-05-07T09:01:37;26.20;62.50
26186;DHT22;20067;48.764;9.176;2023-05-07T09:04:04;25.90;62.40
26186;DHT22;20067;48.764;9.176;2023-05-07T09:06:31;26.10;62.30
26186;DHT22;20067;48.764;9.176;2023-05-07T09:08:56;25.70;62.90
26186;DHT22;20067;48.764;9.176;2023-05-07T09:11:24;25.00;64.50
26186;DHT22;20067;48.764;9.176;2023-05-07T09:13:57;24.80;66.90
26186;DHT22;20067;48.764;9.176;2023-05-07T09:16:24;25.30;63.90
26186;DHT22;20067;48.764;9.176;2023-05-07T09:18:54;25.70;63.50
26186;DHT22;20067;48.764;9.176;2023-05-07T09:21:21;25.50;63.60
26186;DHT22;20067;48.764;9.176;2023-05-07T09:23:50;25.50;64.10
26186;DHT22;20067;48.764;9.176;2023-05-07T09:26:16;25.40;64.30
26186;DHT22;20067;48.764;9.176;2023-05-07T09:28:42;26.10;62.60
26186;DHT22;20067;48.764;9.176;2023-05-07T09:31:09;27.40;60.70
26186;DHT22;20067;48.764;9.176;2023-05-07T09:33:35;27.20;59.90
26186;DHT22;20067;48.764;9.176;2023-05-07T09:36:05;27.30;59.90
26186;DHT22;20067;48.764;9.176;2023-05-07T09:38:32;27.70;58.60
26186;DHT22;20067;48.764;9.176;2023-05-07T09:41:09;27.40;59.10
26186;DHT22;20067;48.764;9.176;2023-05-07T09:43:37;27.00;59.40
26186;DHT22;20067;48.764;9.176;2023-05-07T09:46:12;26.70;59.90
26186;DHT22;20067;48.764;9.176;2023-05-07T09:48:40;26.20;61.00
26186;DHT22;20067;48.764;9.176;2023-05-07T09:53:45;26.70;60.40
26186;DHT22;20067;48.764;9.176;2023-05-07T09:56:13;27.10;60.50
26186;DHT22;20067;48.764;9.176;2023-05-07T09:58:41;27.60;58.20
26186;DHT22;20067;48.764;9.176;2023-05-07T10:01:07;26.20;60.00
26186;DHT22;20067;48.764;9.176;2023-05-07T10:03:33;26.10;61.10
26186;DHT22;20067;48.764;9.176;2023-05-07T10:06:00;26.90;60.80
26186;DHT22;20067;48.764;9.176;2023-05-07T10:08:26;27.00;59.50
26186;DHT22;20067;48.764;9.176;2023-05-07T10:10:52;26.10;61.90
26186;DHT22;20067;48.764;9.176;2023-05-07T10:13:19;26.60;61.80
26186;DHT22;20067;48.764;9.176;2023-05-07T10:15:44;27.40;59.10
26186;DHT22;20067;48.764;9.176;2023-05-07T10:18:12;27.70;58.20
26186;DHT22;20067;48.764;9.176;2023-05-07T10:20:39;27.60;58.00
26186;DHT22;20067;48.764;9.176;2023-05-07T10:23:07;26.70;60.00
26186;DHT22;20067;48.764;9.176;2023-05-07T10:25:33;27.10;60.20
26186;DHT22;20067;48.764;9.176;2023-05-07T10:28:03;28.30;58.20
26186;DHT22;20067;48.764;9.176;2023-05-07T10:33:05;27.90;58.40
26186;DHT22;20067;48.764;9.176;2023-05-07T10:35:45;28.20;58.30
26186;DHT22;20067;48.764;9.176;2023-05-07T10:38:12;29.20;56.30
26186;DHT22;20067;48.764;9.176;2023-05-07T10:40:38;30.80;53.10
26186;DHT22;20067;48.764;9.176;2023-05-07T10:43:04;33.10;50.10
26186;DHT22;20067;48.764;9.176;2023-05-07T10:45:33;31.00;52.20
26186;DHT22;20067;48.764;9.176;2023-05-07T10:48:15;30.30;52.80
26186;DHT22;20067;48.764;9.176;2023-05-07T10:50:42;30.20;52.90
26186;DHT22;20067;48.764;9.176;2023-05-07T10:58:46;30.30;52.10
26186;DHT22;20067;48.764;9.176;2023-05-07T11:01:12;30.20;53.10
26186;DHT22;20067;48.764;9.176;2023-05-07T11:04:14;29.50;54.00
26186;DHT22;20067;48.764;9.176;2023-05-07T11:06:40;29.40;54.70
26186;DHT22;20067;48.764;9.176;2023-05-07T11:09:06;30.40;53.80
26186;DHT22;20067;48.764;9.176;2023-05-07T11:11:48;30.60;52.90
26186;DHT22;20067;48.764;9.176;2023-05-07T11:14:55;27.60;57.40
26186;DHT22;20067;48.764;9.176;2023-05-07T11:17:20;26.20;61.30
26186;DHT22;20067;48.764;9.176;2023-05-07T11:19:54;26.20;61.40
26186;DHT22;20067;48.764;9.176;2023-05-07T11:24:59;26.10;60.60
26186;DHT22;20067;48.764;9.176;2023-05-07T11:27:26;25.70;61.70
26186;DHT22;20067;48.764;9.176;2023-05-07T11:29:52;25.60;60.30
26186;DHT22;20067;48.764;9.176;2023-05-07T11:34:59;25.60;59.40
26186;DHT22;20067;48.764;9.176;2023-05-07T11:37:27;25.50;59.90
26186;DHT22;20067;48.764;9.176;2023-05-07T11:40:05;25.80;59.10
26186;DHT22;20067;48.764;9.176;2023-05-07T11:42:36;25.90;58.80
26186;DHT22;20067;48.764;9.176;2023-05-07T11:45:03;25.60;59.50
26186;DHT22;20067;48.764;9.176;2023-05-07T11:47:33;25.60;59.90
26186;DHT22;20067;48.764;9.176;2023-05-07T11:50:04;25.50;61.70
26186;DHT22;20067;48.764;9.176;2023-05-07T11:52:30;25.50;59.30
26186;DHT22;20067;48.764;9.176;2023-05-07T11:54:57;25.10;60.00
26186;DHT22;20067;48.764;9.176;2023-05-07T11:57:24;25.20;60.90
26186;DHT22;20067;48.764;9.176;2023-05-07T11:59:57;25.20;61.50
26186;DHT22;20067;48.764;9.176;2023-05-07T12:02:23;24.90;62.70
26186;DHT22;20067;48.764;9.176;2023-05-07T12:04:54;24.70;64.10
26186;DHT22;20067;48.764;9.176;2023-05-07T12:07:20;24.30;65.60
26186;DHT22;20067;48.764;9.176;2023-05-07T12:09:46;24.00;66.00
26186;DHT22;20067;48.764;9.176;2023-05-07T12:12:13;23.90;66.40
26186;DHT22;20067;48.764;9.176;2023-05-07T12:14:44;23.80;68.40
26186;DHT22;20067;48.764;9.176;2023-05-07T12:17:11;23.80;69.80
26186;DHT22;20067;48.764;9.176;2023-05-07T12:19:39;23.90;70.40
26186;DHT22;20067;48.764;9.176;2023-05-07T12:22:07;23.20;70.30
26186;DHT22;20067;48.764;9.176;2023-05-07T12:24:49;22.90;66.80
26186;DHT22;20067;48.764;9.176;2023-05-07T12:27:16;22.80;65.30
26186;DHT22;20067;48.764;9.176;2023-05-07T12:29:47;22.20;68.90
26186;DHT22;20067;48.764;9.176;2023-05-07T12:32:18;22.00;72.00
26186;DHT22;20067;48.764;9.176;2023-05-07T12:34:44;21.40;73.90
26186;DHT22;20067;48.764;9.176;2023-05-07T12:37:10;20.70;78.60
26186;DHT22;20067;48.764;9.176;2023-05-07T12:39:36;20.20;83.30
26186;DHT22;20067;48.764;9.176;2023-05-07T12:42:01;20.00;84.60
26186;DHT22;20067;48.764;9.176;2023-05-07T12:44:35;20.30;88.50
26186;DHT22;20067;48.764;9.176;2023-05-07T12:47:02;19.30;85.80
26186;DHT22;20067;48.764;9.176;2023-05-07T12:49:28;18.50;91.30
26186;DHT22;20067;48.764;9.176;2023-05-07T12:51:54;18.10;91.30
26186;DHT22;20067;48.764;9.176;2023-05-07T12:54:33;17.10;91.30
26186;DHT22;20067;48.764;9.176;2023-05-07T12:57:02;16.30;91.30
26186;DHT22;20067;48.764;9.176;2023-05-07T12:59:47;16.00;91.30
26186;DHT22;20067;48.764;9.176;2023-05-07T13:02:12;16.20;91.30
26186;DHT22;20067;48.764;9.176;2023-05-07T13:04:38;16.30;91.30
26186;DHT22;20067;48.764;9.176;2023-05-07T13:07:03;16.60;91.30
26186;DHT22;20067;48.764;9.176;2023-05-07T13:09:30;16.30;91.30
26186;DHT22;20067;48.764;9.176;2023-05-07T13:11:56;16.30;91.30
26186;DHT22;20067;48.764;9.176;2023-05-07T13:14:22;16.40;91.30
26186;DHT22;20067;48.764;9.176;2023-05-07T13:16:48;16.70;91.30
26186;DHT22;20067;48.764;9.176;2023-05-07T13:19:13;16.40;91.30
26186;DHT22;20067;48.764;9.176;2023-05-07T13:21:39;16.60;91.30
26186;DHT22;20067;48.764;9.176;2023-05-07T13:24:05;16.60;91.30
26186;DHT22;20067;48.764;9.176;2023-05-07T13:26:31;16.50;91.30
26186;DHT22;20067;48.764;9.176;2023-05-07T13:28:57;16.70;91.30
26186;DHT22;20067;48.764;9.176;2023-05-07T13:31:23;16.70;91.30
26186;DHT22;20067;48.764;9.176;2023-05-07T13:33:49;16.60;91.30
26186;DHT22;20067;48.764;9.176;2023-05-07T13:36:14;16.40;91.30
26186;DHT22;20067;48.764;9.176;2023-05-07T13:38:40;16.40;91.30
26186;DHT22;20067;48.764;9.176;2023-05-07T13:41:06;16.50;91.30
26186;DHT22;20067;48.764;9.176;2023-05-07T13:43:31;16.60;91.30
26186;DHT22;20067;48.764;9.176;2023-05-07T13:45:59;16.60;91.30
26186;DHT22;20067;48.764;9.176;2023-05-07T13:48:24;16.40;91.30
26186;DHT22;20067;48.764;9.176;2023-05-07T13:50:50;16.40;91.30
26186;DHT22;20067;48.764;9.176;2023-05-07T13:53:17;16.30;91.30
26186;DHT22;20067;48.764;9.176;2023-05-07T13:55:44;16.20;91.30
26186;DHT22;20067;48.764;9.176;2023-05-07T13:58:10;16.30;91.30
26186;DHT22;20067;48.764;9.176;2023-05-07T14:00:36;16.30;91.30
26186;DHT22;20067;48.764;9.176;2023-05-07T14:03:02;16.70;91.30
26186;DHT22;20067;48.764;9.176;2023-05-07T14:05:28;16.50;91.30
26186;DHT22;20067;48.764;9.176;2023-05-07T14:07:55;16.50;91.30
26186;DHT22;20067;48.764;9.176;2023-05-07T14:10:22;16.50;91.30
26186;DHT22;20067;48.764;9.176;2023-05-07T14:12:47;16.40;91.30
26186;DHT22;20067;48.764;9.176;2023-05-07T14:15:13;16.30;91.30
26186;DHT22;20067;48.764;9.176;2023-05-07T14:17:39;16.30;91.30
26186;DHT22;20067;48.764;9.176;2023-05-07T14:20:05;16.30;91.30
26186;DHT22;20067;48.764;9.176;2023-05-07T14:22:32;16.30;91.30
26186;DHT22;20067;48.764;9.176;2023-05-07T14:24:58;16.20;91.30
26186;DHT22;20067;48.764;9.176;2023-05-07T14:27:23;16.10;91.30
26186;DHT22;20067;48.764;9.176;2023-05-07T14:29:49;16.10;91.30
26186;DHT22;20067;48.764;9.176;2023-05-07T14:32:19;16.00;91.30
26186;DHT22;20067;48.764;9.176;2023-05-07T14:34:46;16.00;91.30
26186;DHT22;20067;48.764;9.176;2023-05-07T14:37:12;16.00;91.30
26186;DHT22;20067;48.764;9.176;2023-05-07T14:39:38;16.00;91.30
26186;DHT22;20067;48.764;9.176;2023-05-07T14:42:04;16.00;91.30
26186;DHT22;20067;48.764;9.176;2023-05-07T14:44:29;16.00;91.30
26186;DHT22;20067;48.764;9.176;2023-05-07T14:46:56;16.00;91.30
26186;DHT22;20067;48.764;9.176;2023-05-07T14:49:22;16.10;91.30
26186;DHT22;20067;48.764;9.176;2023-05-07T14:51:47;16.10;91.30
26186;DHT22;20067;48.764;9.176;2023-05-07T14:54:14;16.10;91.30
26186;DHT22;20067;48.764;9.176;2023-05-07T14:56:40;16.10;91.30
26186;DHT22;20067;48.764;9.176;2023-05-07T14:59:07;16.20;91.30
26186;DHT22;20067;48.764;9.176;2023-05-07T15:01:36;16.30;91.30
26186;DHT22;20067;48.764;9.176;2023-05-07T15:04:05;16.30;91.30
26186;DHT22;20067;48.764;9.176;2023-05-07T15:06:31;16.40;91.30
26186;DHT22;20067;48.764;9.176;2023-05-07T15:08:57;16.40;91.30
26186;DHT22;20067;48.764;9.176;2023-05-07T15:11:23;16.50;91.30
26186;DHT22;20067;48.764;9.176;2023-05-07T15:13:49;16.60;91.30
26186;DHT22;20067;48.764;9.176;2023-05-07T15:16:15;16.70;91.30
26186;DHT22;20067;48.764;9.176;2023-05-07T15:18:40;16.80;91.30
26186;DHT22;20067;48.764;9.176;2023-05-07T15:21:06;16.60;91.30
26186;DHT22;20067;48.764;9.176;2023-05-07T15:23:32;16.60;91.30
26186;DHT22;20067;48.764;9.176;2023-05-07T15:25:57;16.70;91.30
26186;DHT22;20067;48.764;9.176;2023-05-07T15:28:23;17.20;91.30
26186;DHT22;20067;48.764;9.176;2023-05-07T15:30:49;17.60;91.30
26186;DHT22;20067;48.764;9.176;2023-05-07T15:33:15;18.00;91.30
26186;DHT22;20067;48.764;9.176;2023-05-07T15:35:41;17.80;91.30
26186;DHT22;20067;48.764;9.176;2023-05-07T15:38:06;17.70;91.30
26186;DHT22;20067;48.764;9.176;2023-05-07T15:40:34;17.60;91.30
26186;DHT22;20067;48.764;9.176;2023-05-07T15:43:00;17.80;91.30